Time;durP1;ratioP1;P1;durP2;ratioP2;P2;SDS_P1;SDS_P2;PMS_P1;PMS_P2;Temp;Humidity;BMP_temperature;BMP_pressure;BME280_temperature;BME280_humidity;BME280_pressure;Samples;Min_cycle;Max_cycle;Signal;HPM_P1;HPM_P2
2020/12/17 00:00:32;;;;;;;31.03;21.17;;;;;;;-144.99;100.00;52541.84;5074618;28;20209;-77
2020/12/17 00:02:58;;;;;;;25.97;21.17;;;;;;;-144.99;100.00;52507.19;5071447;28;20216;-74
2020/12/17 00:05:25;;;;;;;27.87;20.70;;;;;;;-144.99;100.00;52525.56;5071799;28;20279;-73
2020/12/17 00:07:51;;;;;;;33.07;21.27;;;;;;;-144.99;100.00;52517.41;5071442;28;20300;-74
2020/12/17 00:10:18;;;;;;;28.53;21.60;;;;;;;-144.99;100.00;52582.63;5082154;28;20689;-73
2020/12/17 00:12:46;;;;;;;26.53;19.57;;;;;;;-144.99;100.00;52525.56;5075905;28;20236;-76
2020/12/17 00:15:14;;;;;;;28.83;20.83;;;;;;;-144.99;100.00;52525.56;5087105;28;20788;-74
2020/12/17 00:17:41;;;;;;;28.57;22.47;;;;;;;-144.99;100.00;52537.78;5070058;28;20220;-74
2020/12/17 00:20:07;;;;;;;33.83;25.67;;;;;;;-144.99;100.00;52537.78;5069843;28;20200;-75
2020/12/17 00:22:34;;;;;;;31.60;20.13;;;;;;;-144.99;100.00;52562.25;5071026;28;20223;-74
2020/12/17 00:25:01;;;;;;;25.43;20.67;;;;;;;-144.99;100.00;52545.94;5074869;28;20221;-75
2020/12/17 00:27:28;;;;;;;26.17;20.17;;;;;;;-144.99;100.00;52521.47;5090555;28;20247;-72
2020/12/17 00:29:54;;;;;;;28.67;20.90;;;;;;;-144.99;100.00;52533.69;5090225;28;20236;-74
2020/12/17 00:32:20;;;;;;;31.17;21.97;;;;;;;-144.99;100.00;52554.09;5085305;28;20236;-75
2020/12/17 00:34:46;;;;;;;29.17;20.70;;;;;;;-144.99;100.00;52570.38;5070470;28;20221;-74
2020/12/17 00:37:13;;;;;;;27.63;21.70;;;;;;;-144.99;100.00;52513.31;5070222;28;20225;-75
2020/12/17 00:39:39;;;;;;;26.63;20.43;;;;;;;-144.99;100.00;52590.78;5070251;28;20193;-76
2020/12/17 00:42:06;;;;;;;25.93;20.43;;;;;;;-144.99;100.00;52562.25;5070295;28;20224;-76
2020/12/17 00:44:33;;;;;;;26.60;21.67;;;;;;;-144.99;100.00;52558.16;5088530;28;20292;-77
2020/12/17 00:46:59;;;;;;;33.83;23.53;;;;;;;-144.99;100.00;52545.94;5086688;22;20264;-67
2020/12/17 00:49:25;;;;;;;29.37;19.53;;;;;;;-144.99;100.00;52550.00;5063710;28;20654;-67
2020/12/17 00:51:59;;;;;;;33.87;20.97;;;;;;;-144.99;100.00;52550.00;4714115;28;10000305;-68
2020/12/17 00:54:25;;;;;;;28.37;20.00;;;;;;;-144.99;100.00;52578.53;5067265;28;20217;-67
2020/12/17 00:56:51;;;;;;;28.63;22.43;;;;;;;-144.99;100.00;52554.09;5061815;28;20300;-68
2020/12/17 00:59:17;;;;;;;25.07;18.50;;;;;;;-144.99;100.00;52566.31;5055226;28;20296;-67
2020/12/17 01:01:44;;;;;;;27.53;19.00;;;;;;;-144.99;100.00;52554.09;5049831;28;20370;-68
2020/12/17 01:04:10;;;;;;;32.77;23.93;;;;;;;-144.99;100.00;52501.09;5050313;28;20264;-68
2020/12/17 01:06:36;;;;;;;29.30;21.00;;;;;;;-144.99;100.00;52552.03;5056035;28;20256;-68
2020/12/17 01:09:03;;;;;;;24.03;19.57;;;;;;;-144.99;100.00;52566.31;5052110;28;20262;-67
2020/12/17 01:11:31;;;;;;;27.50;20.63;;;;;;;-144.99;100.00;52533.69;5052023;28;20348;-68
2020/12/17 01:13:57;;;;;;;24.80;17.97;;;;;;;-144.99;100.00;52554.09;5063767;28;20200;-68
2020/12/17 01:16:23;;;;;;;30.27;18.90;;;;;;;-144.99;100.00;52554.09;5054333;28;20668;-69
2020/12/17 01:18:51;;;;;;;21.10;17.10;;;;;;;-144.99;100.00;52529.63;5047784;28;20304;-68
2020/12/17 01:21:18;;;;;;;24.43;19.97;;;;;;;-144.99;100.00;52525.56;5043907;28;20255;-68
2020/12/17 01:23:44;;;;;;;24.33;18.07;;;;;;;-144.99;100.00;52558.16;5051598;28;20241;-68
2020/12/17 01:26:11;;;;;;;25.37;17.10;;;;;;;-144.99;100.00;52554.09;5050624;28;20682;-68
2020/12/17 01:28:38;;;;;;;22.57;18.43;;;;;;;-144.99;100.00;52517.41;5050806;28;20698;-68
2020/12/17 01:31:07;;;;;;;24.37;17.30;;;;;;;-144.99;100.00;52537.78;5050961;28;20205;-67
2020/12/17 01:33:33;;;;;;;24.30;16.13;;;;;;;-144.99;100.00;52513.31;5050991;28;20285;-69
2020/12/17 01:36:02;;;;;;;25.10;17.00;;;;;;;-144.99;100.00;52566.31;5050204;28;20259;-69
2020/12/17 01:38:28;;;;;;;27.67;19.67;;;;;;;-144.99;100.00;52529.63;5050363;28;20257;-68
2020/12/17 01:40:54;;;;;;;31.30;20.67;;;;;;;-144.99;100.00;52541.84;5050194;28;20244;-69
2020/12/17 01:43:20;;;;;;;25.67;19.23;;;;;;;-144.99;100.00;52537.78;5050420;28;20656;-69
2020/12/17 01:45:46;;;;;;;21.67;17.00;;;;;;;-144.99;100.00;52541.84;5049975;28;20677;-69
2020/12/17 01:48:16;;;;;;;26.90;16.93;;;;;;;-144.99;100.00;52566.31;5049467;28;20469;-68
2020/12/17 01:50:44;;;;;;;22.73;15.90;;;;;;;-144.99;100.00;52509.25;5049980;28;20436;-69
2020/12/17 01:53:11;;;;;;;22.47;17.67;;;;;;;-144.99;100.00;52541.84;5049603;28;20205;-69
2020/12/17 01:55:39;;;;;;;23.23;17.00;;;;;;;-144.99;100.00;52586.69;5052687;28;20264;-69
2020/12/17 01:58:06;;;;;;;22.90;17.70;;;;;;;-144.99;100.00;52590.78;5049798;28;20290;-68
2020/12/17 02:00:35;;;;;;;20.13;15.43;;;;;;;-144.99;100.00;52509.25;5050026;28;20296;-68
2020/12/17 02:03:02;;;;;;;26.37;17.40;;;;;;;-144.99;100.00;52554.09;5049146;28;20244;-67
2020/12/17 02:05:28;;;;;;;19.73;15.90;;;;;;;-144.99;100.00;52517.41;5048476;28;20296;-67
2020/12/17 02:07:54;;;;;;;22.47;15.83;;;;;;;-144.99;100.00;52590.78;5049494;28;20274;-67
2020/12/17 02:10:21;;;;;;;21.33;17.30;;;;;;;-144.99;100.00;52562.25;5049184;28;20665;-67
2020/12/17 02:12:49;;;;;;;24.87;16.07;;;;;;;-144.99;100.00;52529.63;5052139;28;20219;-67
2020/12/17 02:15:17;;;;;;;26.67;18.80;;;;;;;-144.99;100.00;52574.47;5061247;28;20789;-67
2020/12/17 02:17:43;;;;;;;22.83;17.53;;;;;;;-144.99;100.00;52554.09;5049068;28;20846;-68
2020/12/17 02:20:11;;;;;;;25.03;18.63;;;;;;;-144.99;100.00;52537.78;5038372;28;20204;-66
2020/12/17 02:22:38;;;;;;;22.67;19.63;;;;;;;-144.99;100.00;52558.16;5049436;28;20223;-66
2020/12/17 02:25:07;;;;;;;22.63;15.80;;;;;;;-144.99;100.00;52574.47;5049415;28;20296;-66
2020/12/17 02:27:34;;;;;;;23.47;15.13;;;;;;;-144.99;100.00;52531.66;5049002;28;20257;-67
2020/12/17 02:30:00;;;;;;;24.57;16.83;;;;;;;-144.99;100.00;52519.44;5048378;28;20739;-66
2020/12/17 02:32:27;;;;;;;21.80;14.57;;;;;;;-144.99;100.00;52578.53;5050433;28;20229;-66
2020/12/17 02:34:53;;;;;;;24.40;19.87;;;;;;;-144.99;100.00;52501.09;5049037;28;20227;-67
2020/12/17 02:37:19;;;;;;;21.37;16.27;;;;;;;-144.99;100.00;52515.34;5048726;28;20321;-67
2020/12/17 02:39:45;;;;;;;21.90;17.23;;;;;;;-144.99;100.00;52488.84;5048727;28;20209;-66
2020/12/17 02:42:12;;;;;;;22.00;16.00;;;;;;;-144.99;100.00;52558.16;5049188;28;20707;-66
2020/12/17 02:44:38;;;;;;;21.47;15.67;;;;;;;-144.99;100.00;52543.91;5048334;28;20287;-67
2020/12/17 02:47:04;;;;;;;21.07;15.00;;;;;;;-144.99;100.00;52533.69;5048652;28;20777;-67
2020/12/17 02:49:30;;;;;;;23.73;16.53;;;;;;;-144.99;100.00;52519.44;5048206;28;20240;-67
2020/12/17 02:51:56;;;;;;;19.47;14.73;;;;;;;-144.99;100.00;52513.31;5049706;28;20217;-68
2020/12/17 02:54:22;;;;;;;20.70;15.07;;;;;;;-144.99;100.00;52517.41;5049386;28;20270;-67
2020/12/17 02:56:49;;;;;;;18.53;15.87;;;;;;;-144.99;100.00;52505.16;5052342;28;20275;-67
2020/12/17 02:59:16;;;;;;;20.67;16.20;;;;;;;-144.99;100.00;52527.59;5048827;28;20240;-67
2020/12/17 03:01:42;;;;;;;20.53;14.87;;;;;;;-144.99;100.00;52545.94;5049664;28;20271;-67
2020/12/17 03:04:08;;;;;;;18.43;13.63;;;;;;;-144.99;100.00;52570.38;5048326;28;20670;-67
2020/12/17 03:06:34;;;;;;;21.90;15.27;;;;;;;-144.99;100.00;52566.31;5048546;28;20734;-67
2020/12/17 03:09:00;;;;;;;18.57;14.87;;;;;;;-144.99;100.00;52521.47;5048366;28;20662;-68
2020/12/17 03:11:26;;;;;;;22.27;14.60;;;;;;;-144.99;100.00;52547.97;5049521;28;20236;-67
2020/12/17 03:13:52;;;;;;;19.90;15.47;;;;;;;-144.99;100.00;52517.41;5059088;28;20216;-67
2020/12/17 03:16:19;;;;;;;20.93;14.27;;;;;;;-144.99;100.00;52562.25;5054467;28;20220;-67
2020/12/17 03:18:47;;;;;;;21.03;14.97;;;;;;;-144.99;100.00;52541.84;5049242;28;20285;-67
2020/12/17 03:21:13;;;;;;;21.83;15.33;;;;;;;-144.99;100.00;52513.31;5045462;28;20240;-67
2020/12/17 03:23:39;;;;;;;26.20;14.67;;;;;;;-144.99;100.00;52533.69;5052740;28;20289;-67
2020/12/17 03:26:05;;;;;;;15.47;13.07;;;;;;;-144.99;100.00;52537.78;5053286;28;20645;-67
2020/12/17 03:28:32;;;;;;;23.00;16.20;;;;;;;-144.99;100.00;52531.66;5052064;28;20233;-67
2020/12/17 03:30:58;;;;;;;18.03;14.93;;;;;;;-144.99;100.00;52562.25;5052940;28;20593;-67
2020/12/17 03:33:25;;;;;;;22.87;17.83;;;;;;;-144.99;100.00;52552.03;5052505;28;20352;-67
2020/12/17 03:35:51;;;;;;;20.40;16.03;;;;;;;-144.99;100.00;52545.94;5052490;28;20312;-68
2020/12/17 03:38:17;;;;;;;26.83;16.53;;;;;;;-144.99;100.00;52545.94;5052401;28;20327;-68
2020/12/17 03:40:43;;;;;;;17.90;14.70;;;;;;;-144.99;100.00;52521.47;5052095;28;20213;-66
2020/12/17 03:43:10;;;;;;;20.13;14.33;;;;;;;-144.99;100.00;52558.16;5052425;28;20237;-69
2020/12/17 03:45:36;;;;;;;23.77;15.67;;;;;;;-144.99;100.00;52550.00;5052590;28;20233;-67
2020/12/17 03:48:02;;;;;;;23.10;16.30;;;;;;;-144.99;100.00;52525.56;5051893;28;20315;-67
2020/12/17 03:50:29;;;;;;;19.90;15.17;;;;;;;-144.99;100.00;52550.00;5053263;28;20663;-68
2020/12/17 03:52:55;;;;;;;17.67;14.27;;;;;;;-144.99;100.00;52494.97;5053298;28;20289;-67
2020/12/17 03:55:21;;;;;;;19.57;12.80;;;;;;;-144.99;100.00;52541.84;5054738;28;20301;-67
2020/12/17 03:57:47;;;;;;;22.47;15.57;;;;;;;-144.99;100.00;52541.84;5052308;28;20304;-67
2020/12/17 04:00:14;;;;;;;21.53;14.93;;;;;;;-144.99;100.00;52501.09;5052303;28;20208;-68
2020/12/17 04:02:40;;;;;;;17.57;14.70;;;;;;;-144.99;100.00;52525.56;5052576;28;20236;-66
2020/12/17 04:05:06;;;;;;;20.43;14.17;;;;;;;-144.99;100.00;52521.47;5052215;28;20567;-67
2020/12/17 04:07:33;;;;;;;21.33;16.23;;;;;;;-144.99;100.00;52525.56;5052151;28;20303;-69
2020/12/17 04:09:59;;;;;;;23.00;14.77;;;;;;;-144.99;100.00;52497.00;5051814;28;20189;-68
2020/12/17 04:12:26;;;;;;;22.77;14.70;;;;;;;-144.99;100.00;52525.56;5051515;28;20193;-68
2020/12/17 04:14:52;;;;;;;17.83;13.10;;;;;;;-144.99;100.00;52505.16;5067406;28;20290;-69
2020/12/17 04:17:18;;;;;;;20.67;14.80;;;;;;;-144.99;100.00;52570.38;5052825;28;20312;-68
2020/12/17 04:19:44;;;;;;;19.97;14.50;;;;;;;-144.99;100.00;52529.63;5040944;28;20278;-68
2020/12/17 04:22:16;;;;;;;20.77;15.03;;;;;;;-144.99;100.00;52558.16;5052455;28;20288;-68
2020/12/17 04:24:43;;;;;;;17.00;12.77;;;;;;;-144.99;100.00;52558.16;5051850;28;20205;-67
2020/12/17 04:27:10;;;;;;;19.07;14.67;;;;;;;-144.99;100.00;52525.56;5051819;28;20372;-68
2020/12/17 04:29:36;;;;;;;21.77;14.87;;;;;;;-144.99;100.00;52566.31;5051464;28;20347;-69
2020/12/17 04:32:02;;;;;;;20.93;15.23;;;;;;;-144.99;100.00;52554.09;5051863;28;20320;-67
2020/12/17 04:34:28;;;;;;;21.53;16.53;;;;;;;-144.99;100.00;52527.59;5051418;28;20296;-68
2020/12/17 04:36:54;;;;;;;22.47;14.93;;;;;;;-144.99;100.00;52556.13;5051403;28;20312;-68
2020/12/17 04:39:21;;;;;;;22.10;15.53;;;;;;;-144.99;100.00;52521.47;5051268;28;20248;-67
2020/12/17 04:41:48;;;;;;;19.20;15.17;;;;;;;-144.99;100.00;52513.31;5051721;28;20456;-67
2020/12/17 04:44:15;;;;;;;21.27;15.23;;;;;;;-144.99;100.00;52533.69;5051116;28;20288;-68
2020/12/17 04:46:43;;;;;;;18.67;13.70;;;;;;;-144.99;100.00;52590.78;5051147;28;20321;-68
2020/12/17 04:49:11;;;;;;;22.30;16.97;;;;;;;-144.99;100.00;52537.78;5050852;28;20678;-67
2020/12/17 04:51:38;;;;;;;18.83;14.97;;;;;;;-144.99;100.00;52537.78;5051392;28;20239;-68
2020/12/17 04:54:07;;;;;;;19.77;17.47;;;;;;;-144.99;100.00;52539.81;5051547;28;20335;-67
2020/12/17 04:56:41;;;;;;;23.73;17.67;;;;;;;-144.99;100.00;52558.16;5057029;28;20300;-69
2020/12/17 04:59:09;;;;;;;24.47;18.17;;;;;;;-144.99;100.00;52517.41;5051456;28;20618;-67
2020/12/17 05:01:42;;;;;;;23.73;15.70;;;;;;;-144.99;100.00;52505.16;5051784;28;20664;-68
2020/12/17 05:04:11;;;;;;;21.17;14.73;;;;;;;-144.99;100.00;52558.16;5050443;28;20205;-68
2020/12/17 05:06:38;;;;;;;23.87;17.10;;;;;;;-144.99;100.00;52527.59;5051716;28;20225;-67
2020/12/17 05:09:05;;;;;;;17.13;12.27;;;;;;;-144.99;100.00;52486.81;5051269;28;20744;-67
2020/12/17 05:11:32;;;;;;;20.20;14.37;;;;;;;-144.99;100.00;52545.94;5050632;28;20683;-66
2020/12/17 05:13:59;;;;;;;18.40;12.83;;;;;;;-144.99;100.00;52521.47;5055952;28;20301;-67
2020/12/17 05:16:27;;;;;;;16.93;12.63;;;;;;;-144.99;100.00;52509.25;5053931;28;20257;-66
2020/12/17 05:18:53;;;;;;;22.77;15.73;;;;;;;-144.99;100.00;52539.81;5045789;28;20293;-67
2020/12/17 05:21:19;;;;;;;23.67;16.30;;;;;;;-144.99;100.00;52558.16;5044052;28;20201;-69
2020/12/17 05:23:48;;;;;;;20.97;15.40;;;;;;;-144.99;100.00;52517.41;5050849;28;20579;-68
2020/12/17 05:26:14;;;;;;;17.90;13.90;;;;;;;-144.99;100.00;52566.31;5050582;28;20343;-67
2020/12/17 05:28:40;;;;;;;22.47;18.13;;;;;;;-144.99;100.00;52586.69;5050576;28;20285;-67
2020/12/17 05:31:12;;;;;;;21.07;15.00;;;;;;;-144.99;100.00;52554.09;5050581;28;20664;-68
2020/12/17 05:33:39;;;;;;;17.93;14.27;;;;;;;-144.99;100.00;52472.56;5051007;28;20213;-68
2020/12/17 05:36:05;;;;;;;18.73;15.60;;;;;;;-144.99;100.00;52517.41;5052977;28;20694;-68
2020/12/17 05:38:34;;;;;;;20.37;15.60;;;;;;;-144.99;100.00;52525.56;5054942;28;20222;-67
2020/12/17 05:41:00;;;;;;;18.57;15.00;;;;;;;-144.99;100.00;52521.47;5053372;28;20208;-68
2020/12/17 05:43:29;;;;;;;18.60;15.17;;;;;;;-144.99;100.00;52537.78;5054062;28;20201;-69
2020/12/17 05:45:56;;;;;;;19.80;16.47;;;;;;;-144.99;100.00;52505.16;5051090;28;20284;-67
2020/12/17 05:48:22;;;;;;;20.10;14.77;;;;;;;-144.99;100.00;52558.16;5044048;28;20234;-67
2020/12/17 05:50:51;;;;;;;22.70;16.80;;;;;;;-144.99;100.00;52568.34;5046809;28;20213;-69
2020/12/17 05:53:17;;;;;;;18.90;12.87;;;;;;;-144.99;100.00;52568.34;5050666;28;20420;-69
2020/12/17 05:55:44;;;;;;;22.20;16.83;;;;;;;-144.99;100.00;52521.47;5053678;28;20316;-69
2020/12/17 05:58:11;;;;;;;21.00;14.77;;;;;;;-144.99;100.00;52511.28;5050738;28;20308;-68
2020/12/17 06:00:37;;;;;;;20.87;14.60;;;;;;;-144.99;100.00;52586.69;5049894;28;20212;-68
2020/12/17 06:03:03;;;;;;;21.10;13.00;;;;;;;-144.99;100.00;52525.56;5049717;28;20705;-69
2020/12/17 06:05:30;;;;;;;28.33;14.77;;;;;;;-144.99;100.00;52513.31;5050495;28;20751;-69
2020/12/17 06:08:00;;;;;;;19.67;13.40;;;;;;;-144.99;100.00;52582.63;5050403;28;20222;-69
2020/12/17 06:10:27;;;;;;;22.40;16.20;;;;;;;-144.99;100.00;52550.00;5050152;28;20205;-69
2020/12/17 06:12:54;;;;;;;25.43;18.63;;;;;;;-144.99;100.00;52537.78;5046876;28;20282;-69
2020/12/17 06:15:22;;;;;;;18.07;14.03;;;;;;;-144.99;100.00;52574.47;5060836;28;20312;-70
2020/12/17 06:17:54;;;;;;;21.93;14.50;;;;;;;-144.99;100.00;52525.56;5049238;28;20313;-72
2020/12/17 06:20:22;;;;;;;20.13;13.83;;;;;;;-144.99;100.00;52537.78;5039990;28;20247;-70
2020/12/17 06:22:53;;;;;;;18.07;14.53;;;;;;;-144.99;100.00;52541.84;5049770;28;20287;-70
2020/12/17 06:25:21;;;;;;;19.83;14.50;;;;;;;-144.99;100.00;52545.94;5052656;28;20308;-70
2020/12/17 06:27:49;;;;;;;23.87;17.03;;;;;;;-144.99;100.00;52545.94;5050021;28;20758;-70
2020/12/17 06:30:17;;;;;;;19.63;14.60;;;;;;;-144.99;100.00;52517.41;5050013;28;20602;-69
2020/12/17 06:32:44;;;;;;;24.13;14.93;;;;;;;-144.99;100.00;52545.94;5048587;28;20313;-69
2020/12/17 06:35:23;;;;;;;20.60;15.93;;;;;;;-144.99;100.00;52558.16;5049144;28;20751;-70
2020/12/17 06:37:51;;;;;;;17.67;13.33;;;;;;;-144.99;100.00;52600.97;5048561;28;20651;-71
2020/12/17 06:40:26;;;;;;;24.17;14.43;;;;;;;-144.99;100.00;52545.94;5049157;28;20237;-71
2020/12/17 06:42:52;;;;;;;20.87;15.20;;;;;;;-144.99;100.00;52537.78;5048378;28;20663;-71
2020/12/17 06:45:26;;;;;;;21.57;15.03;;;;;;;-144.99;100.00;52523.50;5053798;28;20694;-71
2020/12/17 06:47:52;;;;;;;20.50;15.07;;;;;;;-144.99;100.00;52562.25;5059396;22;20238;-76
2020/12/17 06:50:23;;;;;;;21.23;16.13;;;;;;;-144.99;100.00;52547.97;5053994;28;20212;-75
2020/12/17 06:53:07;;;;;;;20.90;15.13;;;;;;;-144.99;100.00;52513.31;5046297;28;20296;-75
2020/12/17 06:55:42;;;;;;;26.40;17.20;;;;;;;-144.99;100.00;52521.47;5064241;28;20225;-77
2020/12/17 06:58:17;;;;;;;22.30;15.83;;;;;;;-144.99;100.00;52570.38;5073567;28;20737;-76
2020/12/17 07:00:44;;;;;;;26.40;17.00;;;;;;;-144.99;100.00;52566.31;5075228;28;20678;-76
2020/12/17 07:03:10;;;;;;;20.87;15.63;;;;;;;-144.99;100.00;52582.63;5075480;28;20203;-77
2020/12/17 07:05:38;;;;;;;28.73;16.93;;;;;;;-144.99;100.00;52562.25;5076456;28;20566;-76
2020/12/17 07:08:04;;;;;;;21.37;15.27;;;;;;;-144.99;100.00;52501.09;5073907;28;20583;-78
2020/12/17 07:10:32;;;;;;;21.00;16.20;;;;;;;-144.99;100.00;52509.25;5073038;28;20220;-74
2020/12/17 07:12:59;;;;;;;20.13;15.20;;;;;;;-144.99;100.00;52499.06;5056135;28;20205;-74
2020/12/17 07:15:34;;;;;;;22.63;17.10;;;;;;;-144.99;100.00;52541.84;5052283;28;20214;-76
2020/12/17 07:18:23;;;;;;;25.10;18.73;;;;;;;-144.99;100.00;52521.47;5050656;28;20244;-77
2020/12/17 07:20:52;;;;;;;21.90;15.77;;;;;;;-144.99;100.00;52525.56;5048147;28;20228;-75
2020/12/17 07:23:20;;;;;;;23.07;15.13;;;;;;;-144.99;100.00;52537.78;5069681;28;20281;-76
2020/12/17 07:25:51;;;;;;;29.20;18.80;;;;;;;-144.99;100.00;52541.84;5071562;28;20231;-77
2020/12/17 07:28:26;;;;;;;25.50;17.37;;;;;;;-144.99;100.00;52537.78;5086094;28;20270;-77
2020/12/17 07:30:53;;;;;;;26.20;17.43;;;;;;;-144.99;100.00;52537.78;5074903;28;20199;-75
2020/12/17 07:33:41;;;;;;;18.53;14.53;;;;;;;-144.99;100.00;52545.94;5064420;28;20238;-76
2020/12/17 07:36:09;;;;;;;25.10;17.00;;;;;;;-144.99;100.00;52499.06;5049542;28;20230;-77
2020/12/17 07:38:36;;;;;;;21.20;15.03;;;;;;;-144.99;100.00;52513.31;5050198;28;20713;-76
2020/12/17 07:41:02;;;;;;;25.00;16.73;;;;;;;-144.99;100.00;52554.09;5049751;28;20209;-74
2020/12/17 07:43:40;;;;;;;24.60;16.37;;;;;;;-144.99;100.00;52550.00;5050578;28;20300;-76
2020/12/17 07:46:08;;;;;;;24.03;17.43;;;;;;;-144.99;100.00;52556.13;5055338;28;20293;-74
2020/12/17 07:48:43;;;;;;;24.20;17.63;;;;;;;-144.99;100.00;52554.09;5061850;28;20270;-76
2020/12/17 07:51:27;;;;;;;19.83;16.27;;;;;;;-144.99;100.00;52533.69;5037899;28;20263;-76
2020/12/17 07:53:54;;;;;;;24.43;17.87;;;;;;;-144.99;100.00;52509.25;5054466;28;20311;-76
2020/12/17 07:56:21;;;;;;;22.57;15.53;;;;;;;-144.99;100.00;52513.31;5053082;28;20241;-75
2020/12/17 07:58:49;;;;;;;19.50;13.77;;;;;;;-144.99;100.00;52570.38;5052849;28;20222;-75
2020/12/17 08:01:16;;;;;;;19.77;14.17;;;;;;;-144.99;100.00;52562.25;5052871;28;20202;-75
2020/12/17 08:03:43;;;;;;;19.23;14.00;;;;;;;-144.99;100.00;52525.56;5059657;28;20205;-74
2020/12/17 08:06:11;;;;;;;24.83;15.27;;;;;;;-144.99;100.00;52537.78;5069993;28;20210;-75
2020/12/17 08:08:37;;;;;;;19.40;14.50;;;;;;;-144.99;100.00;52521.47;5074880;28;20233;-75
2020/12/17 08:11:05;;;;;;;21.03;14.67;;;;;;;-144.99;100.00;52547.97;5076620;28;20245;-74
2020/12/17 08:13:31;;;;;;;18.63;15.30;;;;;;;-144.99;100.00;52521.47;5055726;28;20194;-75
2020/12/17 08:15:59;;;;;;;20.13;14.83;;;;;;;-144.99;100.00;52560.19;5054658;28;20237;-75
2020/12/17 08:18:26;;;;;;;18.97;14.43;;;;;;;-144.99;100.00;52531.66;5058316;28;20727;-75
2020/12/17 08:21:04;;;;;;;21.07;13.50;;;;;;;-144.99;100.00;52562.25;5054328;28;20208;-74
2020/12/17 08:23:33;;;;;;;19.83;12.70;;;;;;;-144.99;100.00;52550.00;5074524;28;20205;-75
2020/12/17 08:26:01;;;;;;;19.40;14.30;;;;;;;-144.99;100.00;52537.78;5066522;28;20228;-77
2020/12/17 08:28:31;;;;;;;16.83;11.30;;;;;;;-144.99;100.00;52550.00;5069934;28;20305;-75
2020/12/17 08:31:07;;;;;;;17.17;13.87;;;;;;;-144.99;100.00;52554.09;5066987;28;20244;-74
2020/12/17 08:33:35;;;;;;;19.03;13.53;;;;;;;-144.99;100.00;52541.84;5057463;28;20205;-76
2020/12/17 08:36:05;;;;;;;17.57;14.40;;;;;;;-144.99;100.00;52558.16;5068616;28;20263;-75
2020/12/17 08:38:33;;;;;;;15.83;11.97;;;;;;;-144.99;100.00;52525.56;5069488;28;20217;-75
2020/12/17 08:41:01;;;;;;;14.57;11.20;;;;;;;-144.99;100.00;52472.56;5060859;28;20209;-75
2020/12/17 08:43:33;;;;;;;17.27;12.47;;;;;;;-144.99;100.00;52541.84;5055665;28;20209;-75
2020/12/17 08:46:01;;;;;;;15.53;12.60;;;;;;;-144.99;100.00;52515.34;5055599;28;20658;-75
2020/12/17 08:48:32;;;;;;;19.40;14.17;;;;;;;-144.99;100.00;52517.41;5056187;28;20229;-75
2020/12/17 08:50:59;;;;;;;19.20;12.57;;;;;;;-144.99;100.00;52550.00;5054891;28;20213;-74
2020/12/17 08:53:27;;;;;;;15.53;12.67;;;;;;;-144.99;100.00;52497.00;5054880;28;20248;-75
2020/12/17 08:56:11;;;;;;;14.23;11.40;;;;;;;-144.99;100.00;52513.31;5059481;28;20589;-75
2020/12/17 08:58:46;;;;;;;15.87;11.73;;;;;;;-144.99;100.00;52556.13;5054778;28;20581;-75
2020/12/17 09:01:18;;;;;;;15.50;12.13;;;;;;;-144.99;100.00;52521.47;5054491;28;20205;-74
2020/12/17 09:03:47;;;;;;;20.47;12.87;;;;;;;-144.99;100.00;52517.41;5054126;28;20232;-75
2020/12/17 09:06:14;;;;;;;18.77;12.73;;;;;;;-144.99;100.00;52531.66;5054109;28;20261;-75
2020/12/17 09:08:40;;;;;;;16.60;12.00;;;;;;;-144.99;100.00;52545.94;5054662;28;20237;-79
2020/12/17 09:11:27;;;;;;;18.43;12.27;;;;;;;-144.99;100.00;52566.31;5053800;28;20567;-75
2020/12/17 09:13:59;;;;;;;18.53;11.43;;;;;;;-144.99;100.00;52533.69;5050189;28;20202;-75
2020/12/17 09:16:28;;;;;;;15.37;13.27;;;;;;;-144.99;100.00;52505.16;5053655;28;20201;-74
2020/12/17 09:18:55;;;;;;;17.03;11.63;;;;;;;-144.99;100.00;52505.16;5048420;28;20221;-75
2020/12/17 09:21:22;;;;;;;16.33;11.30;;;;;;;-144.99;100.00;52541.84;5042851;28;20197;-74
2020/12/17 09:23:54;;;;;;;20.27;13.37;;;;;;;-144.99;100.00;52525.56;5057923;28;20197;-74
2020/12/17 09:26:20;;;;;;;15.80;12.63;;;;;;;-144.99;100.00;52525.56;5053828;28;20214;-74
2020/12/17 09:28:51;;;;;;;17.57;12.20;;;;;;;-144.99;100.00;52562.25;5052929;28;20329;-76
2020/12/17 09:31:22;;;;;;;17.03;12.20;;;;;;;-144.99;100.00;52562.25;5051930;28;20205;-74
2020/12/17 09:33:48;;;;;;;14.27;10.20;;;;;;;-144.99;100.00;52521.47;5052410;28;20209;-74
2020/12/17 09:36:16;;;;;;;17.10;11.80;;;;;;;-144.99;100.00;52541.84;5052111;28;20221;-74
2020/12/17 09:38:43;;;;;;;15.77;12.67;;;;;;;-144.99;100.00;52521.47;5053885;28;20278;-75
2020/12/17 09:41:09;;;;;;;19.23;14.47;;;;;;;-144.99;100.00;52537.78;5055927;28;20248;-75
2020/12/17 09:43:46;;;;;;;19.03;13.73;;;;;;;-144.99;100.00;52574.47;5071977;28;20299;-74
2020/12/17 09:46:12;;;;;;;14.80;10.00;;;;;;;-144.99;100.00;52533.69;5072965;28;20219;-75
2020/12/17 09:48:38;;;;;;;18.43;12.87;;;;;;;-144.99;100.00;52509.25;5061932;28;20769;-72
2020/12/17 09:51:07;;;;;;;18.37;13.97;;;;;;;-144.99;100.00;52521.47;5066061;28;20284;-74
2020/12/17 09:53:36;;;;;;;16.97;13.03;;;;;;;-144.99;100.00;52513.31;5084558;28;20742;-74
2020/12/17 09:56:02;;;;;;;15.73;12.00;;;;;;;-144.99;100.00;52501.09;5055948;28;20822;-73
2020/12/17 09:58:28;;;;;;;17.17;12.30;;;;;;;-144.99;100.00;52517.41;5052810;28;20221;-73
2020/12/17 10:00:54;;;;;;;17.87;11.93;;;;;;;-144.99;100.00;52529.63;5052011;28;20371;-73
2020/12/17 10:03:21;;;;;;;19.27;13.37;;;;;;;-144.99;100.00;52505.16;5051892;28;20209;-73
2020/12/17 10:05:47;;;;;;;16.27;13.07;;;;;;;-144.99;100.00;52556.13;5054519;28;20236;-73
2020/12/17 10:08:14;;;;;;;15.67;11.17;;;;;;;-144.99;100.00;52525.56;5051774;28;20792;-73
2020/12/17 10:10:41;;;;;;;17.00;11.83;;;;;;;-144.99;100.00;52537.78;5052522;28;20366;-73
2020/12/17 10:13:09;;;;;;;15.03;12.03;;;;;;;-144.99;100.00;52523.50;5047246;28;20208;-73
2020/12/17 10:15:35;;;;;;;17.40;12.83;;;;;;;-144.99;100.00;52537.78;5052603;28;20691;-73
2020/12/17 10:18:02;;;;;;;19.47;13.63;;;;;;;-144.99;100.00;52505.16;5052597;28;20233;-72
2020/12/17 10:20:28;;;;;;;16.77;12.67;;;;;;;-144.99;100.00;52541.84;5048117;28;20632;-73
2020/12/17 10:22:54;;;;;;;16.80;11.97;;;;;;;-144.99;100.00;52521.47;5072633;28;20212;-74
2020/12/17 10:25:21;;;;;;;16.83;12.73;;;;;;;-144.99;100.00;52566.31;5072557;28;20228;-74
2020/12/17 10:27:49;;;;;;;15.83;12.90;;;;;;;-144.99;100.00;52488.84;5078290;28;20285;-73
2020/12/17 10:30:15;;;;;;;18.90;12.33;;;;;;;-144.99;100.00;52570.38;5078857;28;20203;-73
2020/12/17 10:32:42;;;;;;;14.90;13.37;;;;;;;-144.99;100.00;52488.84;5071615;28;20204;-73
2020/12/17 10:35:09;;;;;;;18.93;13.47;;;;;;;-144.99;100.00;52537.78;5071712;28;20201;-72
2020/12/17 10:37:35;;;;;;;17.60;14.17;;;;;;;-144.99;100.00;52507.19;5070252;28;20213;-72
2020/12/17 10:40:01;;;;;;;18.07;13.37;;;;;;;-144.99;100.00;52513.31;5070572;28;20205;-73
2020/12/17 10:42:28;;;;;;;16.00;12.43;;;;;;;-144.99;100.00;52550.00;5070437;28;20203;-73
2020/12/17 10:44:55;;;;;;;18.83;14.27;;;;;;;-144.99;100.00;52511.28;5070704;28;20204;-72
2020/12/17 10:47:21;;;;;;;17.33;11.73;;;;;;;-144.99;100.00;52529.63;5071455;28;20235;-75
2020/12/17 10:49:48;;;;;;;18.20;12.10;;;;;;;-144.99;100.00;52543.91;5052065;28;20209;-72
2020/12/17 10:52:15;;;;;;;19.83;14.30;;;;;;;-144.99;100.00;52537.78;5051800;28;20288;-73
2020/12/17 10:54:42;;;;;;;17.80;14.17;;;;;;;-144.99;100.00;52554.09;5056829;28;20198;-77
2020/12/17 10:57:08;;;;;;;16.53;13.00;;;;;;;-144.99;100.00;52545.94;5052517;28;20298;-74